createdAt,value
2018-06-15T00:02:29.774Z,26.07
2018-06-15T00:04:58.153Z,24.73
2018-06-15T00:07:26.469Z,24.23
2018-06-15T00:09:54.805Z,25.73
2018-06-15T00:12:23.102Z,24.97
2018-06-15T00:14:51.424Z,27.17
2018-06-15T00:17:19.747Z,26.00
2018-06-15T00:19:48.176Z,26.17
2018-06-15T00:22:16.481Z,23.57
2018-06-15T00:24:44.808Z,26.33
2018-06-15T00:27:13.167Z,26.97
2018-06-15T00:29:41.560Z,26.33
2018-06-15T00:32:09.844Z,26.90
2018-06-15T00:34:38.137Z,26.60
2018-06-15T00:37:06.446Z,26.87
2018-06-15T00:39:34.767Z,29.70
2018-06-15T00:42:03.055Z,27.07
2018-06-15T00:44:31.343Z,30.60
2018-06-15T00:46:59.638Z,30.97
2018-06-15T00:49:27.932Z,30.67
2018-06-15T00:51:56.010Z,29.93
2018-06-15T00:54:24.321Z,29.27
2018-06-15T00:57:04.096Z,30.20
2018-06-15T00:59:32.441Z,29.90
2018-06-15T01:02:00.727Z,31.83
2018-06-15T01:04:29.028Z,29.87
2018-06-15T01:06:57.309Z,29.93
2018-06-15T01:09:25.906Z,32.23
2018-06-15T01:11:54.197Z,30.10
2018-06-15T01:14:22.512Z,31.70
2018-06-15T01:16:50.859Z,31.30
2018-06-15T01:19:19.181Z,32.70
2018-06-15T01:21:47.484Z,34.00
2018-06-15T01:24:15.768Z,32.90
2018-06-15T01:26:44.111Z,32.60
2018-06-15T01:29:12.411Z,36.73
2018-06-15T01:31:40.707Z,36.40
2018-06-15T01:34:08.996Z,35.53
2018-06-15T01:36:37.321Z,36.13
2018-06-15T01:39:07.090Z,36.73
2018-06-15T01:41:35.719Z,38.23
2018-06-15T01:44:04.059Z,36.77
2018-06-15T01:46:32.372Z,35.90
2018-06-15T01:49:00.700Z,35.60
2018-06-15T01:51:28.990Z,35.00
2018-06-15T01:53:57.287Z,35.00
2018-06-15T01:56:25.696Z,35.53
2018-06-15T01:58:54.035Z,35.40
2018-06-15T02:01:22.479Z,36.40
2018-06-15T02:03:50.713Z,37.20
2018-06-15T02:06:19.410Z,36.73
2018-06-15T02:08:48.549Z,36.07
2018-06-15T02:11:17.561Z,35.73
2018-06-15T02:13:45.849Z,35.73
2018-06-15T02:16:14.179Z,36.50
2018-06-15T02:18:42.471Z,36.10
2018-06-15T02:21:10.737Z,37.10
2018-06-15T02:23:38.998Z,35.03
2018-06-15T02:26:07.352Z,35.53
2018-06-15T02:28:35.638Z,35.63
2018-06-15T02:31:03.954Z,35.90
2018-06-15T02:33:33.128Z,35.90
2018-06-15T02:36:03.714Z,34.83
2018-06-15T02:38:32.181Z,37.47
2018-06-15T02:41:01.416Z,35.40
2018-06-15T02:43:29.836Z,38.13
2018-06-15T02:45:58.549Z,34.50
2018-06-15T02:48:26.825Z,33.73
2018-06-15T02:50:55.092Z,34.97
2018-06-15T02:53:23.391Z,35.77
2018-06-15T02:55:51.718Z,35.53
2018-06-15T02:58:20.020Z,33.73
2018-06-15T03:00:48.043Z,32.23
2018-06-15T03:03:16.347Z,32.33
2018-06-15T03:05:44.657Z,31.30
2018-06-15T03:08:12.958Z,33.17
2018-06-15T03:10:41.395Z,31.57
2018-06-15T03:13:09.681Z,30.20
2018-06-15T03:15:37.976Z,31.70
2018-06-15T03:18:05.999Z,29.53
2018-06-15T03:20:34.290Z,29.67
2018-06-15T03:23:02.600Z,31.23
2018-06-15T03:25:30.914Z,31.13
2018-06-15T03:27:59.284Z,29.33
2018-06-15T03:30:27.319Z,30.70
2018-06-15T03:32:55.649Z,29.30
2018-06-15T03:35:23.683Z,30.07
2018-06-15T03:37:52.005Z,32.00
2018-06-15T03:40:20.354Z,30.00
2018-06-15T03:42:48.764Z,28.73
2018-06-15T03:45:17.124Z,28.63
2018-06-15T03:47:45.453Z,30.30
2018-06-15T03:50:13.779Z,28.50
2018-06-15T03:52:42.099Z,27.90
2018-06-15T03:55:10.397Z,29.73
2018-06-15T03:57:38.682Z,29.20
2018-06-15T04:00:06.990Z,27.70
2018-06-15T04:02:35.288Z,30.67
2018-06-15T04:05:03.679Z,31.30
2018-06-15T04:07:32.006Z,30.47
2018-06-15T04:10:00.341Z,29.37
2018-06-15T04:12:28.653Z,28.87
2018-06-15T04:14:56.941Z,28.87
2018-06-15T04:17:25.383Z,29.77
2018-06-15T04:19:53.737Z,29.53
2018-06-15T04:22:22.056Z,30.20
2018-06-15T04:24:50.378Z,29.90
2018-06-15T04:27:18.682Z,29.47
2018-06-15T04:29:46.989Z,29.20
2018-06-15T04:32:15.297Z,29.43
2018-06-15T04:34:43.621Z,29.33
2018-06-15T04:37:12.096Z,28.83
2018-06-15T04:39:40.414Z,27.83
2018-06-15T04:42:08.754Z,28.73
2018-06-15T04:44:37.037Z,28.73
2018-06-15T04:47:05.653Z,31.93
2018-06-15T04:49:33.961Z,28.93
2018-06-15T04:52:03.185Z,29.97
2018-06-15T04:54:31.477Z,29.30
2018-06-15T04:56:59.524Z,30.97
2018-06-15T04:59:28.398Z,29.57
2018-06-15T05:01:56.686Z,28.73
2018-06-15T05:04:24.996Z,28.60
2018-06-15T05:06:53.264Z,30.27
2018-06-15T05:09:21.288Z,28.27
2018-06-15T05:11:49.611Z,28.63
2018-06-15T05:14:17.939Z,27.67
2018-06-15T05:16:46.204Z,27.60
2018-06-15T05:19:14.460Z,27.40
2018-06-15T05:21:42.745Z,25.43
2018-06-15T05:24:11.037Z,27.13
2018-06-15T05:26:39.140Z,27.37
2018-06-15T05:29:07.445Z,25.10
2018-06-15T05:31:35.755Z,25.03
2018-06-15T05:34:04.069Z,23.93
2018-06-15T05:36:32.372Z,23.43
2018-06-15T05:39:00.663Z,25.00
2018-06-15T05:41:29.035Z,23.37
2018-06-15T05:43:57.347Z,24.37
2018-06-15T05:46:25.737Z,22.70
2018-06-15T05:48:54.096Z,21.67
2018-06-15T05:51:22.400Z,21.70
2018-06-15T05:53:50.714Z,22.10
2018-06-15T05:56:19.084Z,21.80
2018-06-15T05:58:47.628Z,20.87
2018-06-15T06:01:16.057Z,22.13
2018-06-15T06:03:44.373Z,20.57
2018-06-15T06:06:12.662Z,20.27
2018-06-15T06:08:41.010Z,19.80
2018-06-15T06:11:09.332Z,18.20
2018-06-15T06:13:37.651Z,17.90
2018-06-15T06:16:06.082Z,19.53
2018-06-15T06:18:34.409Z,19.77
2018-06-15T06:21:02.971Z,18.07
2018-06-15T06:23:31.447Z,18.57
2018-06-15T06:25:59.815Z,19.83
2018-06-15T06:28:28.092Z,19.63
2018-06-15T06:30:56.620Z,19.43
2018-06-15T06:33:24.970Z,20.60
2018-06-15T06:35:53.353Z,19.67
2018-06-15T06:38:21.660Z,19.93
2018-06-15T06:40:49.989Z,20.30
2018-06-15T06:43:18.266Z,21.53
2018-06-15T06:45:46.548Z,19.87
2018-06-15T06:48:14.867Z,20.50
2018-06-15T06:50:43.206Z,20.63
2018-06-15T06:53:11.602Z,22.17
2018-06-15T06:55:40.032Z,21.07
2018-06-15T06:58:08.448Z,22.17
2018-06-15T07:00:36.814Z,21.27
2018-06-15T07:03:05.178Z,22.80
2018-06-15T07:05:33.486Z,23.30
2018-06-15T07:08:01.903Z,23.63
2018-06-15T07:10:30.268Z,22.90
2018-06-15T07:12:58.674Z,24.70
2018-06-15T07:15:27.002Z,23.13
2018-06-15T07:17:55.339Z,23.43
2018-06-15T07:20:23.661Z,22.93
2018-06-15T07:22:52.101Z,23.90
2018-06-15T07:25:20.515Z,23.43
2018-06-15T07:27:48.971Z,23.37
2018-06-15T07:30:17.272Z,26.57
2018-06-15T07:32:45.552Z,26.53
2018-06-15T07:35:13.954Z,26.87
2018-06-15T07:37:42.270Z,27.73
2018-06-15T07:40:10.751Z,27.10
2018-06-15T07:42:39.099Z,27.67
2018-06-15T07:45:07.708Z,26.63
2018-06-15T07:47:36.049Z,27.77
2018-06-15T07:50:04.396Z,28.53
2018-06-15T07:52:32.768Z,28.27
2018-06-15T07:55:01.077Z,29.20
2018-06-15T07:57:29.112Z,29.23
2018-06-15T07:59:57.552Z,29.13
2018-06-15T08:02:25.843Z,31.83
2018-06-15T08:04:54.169Z,32.33
2018-06-15T08:07:22.532Z,34.43
2018-06-15T08:09:50.848Z,34.93
2018-06-15T08:12:19.237Z,33.60
2018-06-15T08:14:47.525Z,32.70
2018-06-15T08:17:15.858Z,31.70
2018-06-15T08:19:44.180Z,28.83
2018-06-15T08:22:12.480Z,29.37
2018-06-15T08:24:40.797Z,30.87
2018-06-15T08:27:09.930Z,29.50
2018-06-15T08:29:38.255Z,26.83
2018-06-15T08:32:06.635Z,28.07
2018-06-15T08:34:35.017Z,27.27
2018-06-15T08:37:03.477Z,29.33
2018-06-15T08:39:31.790Z,27.33
2018-06-15T08:42:00.101Z,26.40
2018-06-15T08:44:28.401Z,28.73
2018-06-15T08:46:56.724Z,26.47
2018-06-15T08:49:25.066Z,26.93
2018-06-15T08:51:53.374Z,26.70
2018-06-15T08:54:21.694Z,26.43
2018-06-15T08:56:50.002Z,27.57
2018-06-15T08:59:18.310Z,25.33
2018-06-15T09:01:46.401Z,24.00
2018-06-15T09:04:14.779Z,22.07
2018-06-15T09:06:42.894Z,18.70
2018-06-15T09:09:11.204Z,19.23
2018-06-15T09:11:39.524Z,18.47
2018-06-15T09:14:07.862Z,18.67
2018-06-15T09:16:36.284Z,17.47
2018-06-15T09:19:04.595Z,16.17
2018-06-15T09:21:32.952Z,16.83
2018-06-15T09:24:01.276Z,15.30
2018-06-15T09:26:29.697Z,15.87
2018-06-15T09:28:58.024Z,18.43
2018-06-15T09:31:26.324Z,13.80
2018-06-15T09:33:54.740Z,14.77
2018-06-15T09:36:23.081Z,13.97
2018-06-15T09:38:51.424Z,15.30
2018-06-15T09:41:19.755Z,14.23
2018-06-15T09:43:48.129Z,13.70
2018-06-15T09:46:16.468Z,13.10
2018-06-15T09:48:45.188Z,11.97
2018-06-15T09:51:14.828Z,12.63
2018-06-15T09:53:43.179Z,13.10
2018-06-15T09:56:11.520Z,12.60
2018-06-15T09:58:39.904Z,10.40
2018-06-15T10:01:10.671Z,10.40
2018-06-15T10:03:39.931Z,8.90
2018-06-15T10:06:08.233Z,10.07
2018-06-15T10:08:36.796Z,9.23
2018-06-15T10:11:05.563Z,9.93
2018-06-15T10:13:33.893Z,7.90
2018-06-15T10:16:02.448Z,8.43
2018-06-15T10:18:30.745Z,8.67
2018-06-15T10:20:59.058Z,8.10
2018-06-15T10:23:27.379Z,7.73
2018-06-15T10:25:57.463Z,8.80
2018-06-15T10:28:25.798Z,7.13
2018-06-15T10:30:54.134Z,9.03
2018-06-15T10:33:22.458Z,8.70
2018-06-15T10:35:50.809Z,8.67
2018-06-15T10:38:19.115Z,7.50
2018-06-15T10:40:47.401Z,7.20
2018-06-15T10:43:15.718Z,7.23
2018-06-15T10:45:44.131Z,7.13
2018-06-15T10:48:12.867Z,7.00
2018-06-15T10:50:41.518Z,5.90
2018-06-15T10:53:09.817Z,6.57
2018-06-15T10:55:38.096Z,6.83
2018-06-15T10:58:06.495Z,7.73
2018-06-15T11:00:34.802Z,5.90
2018-06-15T11:03:03.248Z,7.53
2018-06-15T11:05:31.542Z,7.83
2018-06-15T11:07:59.869Z,6.13
2018-06-15T11:10:28.195Z,5.90
2018-06-15T11:12:56.540Z,6.40
2018-06-15T11:15:24.872Z,6.47
2018-06-15T11:17:53.164Z,6.80
2018-06-15T11:20:21.460Z,6.97
2018-06-15T11:22:49.515Z,6.53
2018-06-15T11:25:17.833Z,5.77
2018-06-15T11:27:46.173Z,6.37
2018-06-15T11:30:14.449Z,7.00
2018-06-15T11:32:42.768Z,6.33
2018-06-15T11:35:10.841Z,6.47
2018-06-15T11:37:39.164Z,6.20
2018-06-15T11:40:07.516Z,7.20
2018-06-15T11:42:35.865Z,6.50
2018-06-15T11:45:04.201Z,6.57
2018-06-15T11:47:32.533Z,6.23
2018-06-15T11:50:00.808Z,6.77
2018-06-15T11:52:29.134Z,6.30
2018-06-15T11:54:57.518Z,6.00
2018-06-15T11:57:26.163Z,6.53
2018-06-15T11:59:54.477Z,7.17
2018-06-15T12:02:22.753Z,7.80
2018-06-15T12:04:51.078Z,6.83
2018-06-15T12:07:19.446Z,6.83
2018-06-15T12:09:47.694Z,6.77
2018-06-15T12:12:15.996Z,8.00
2018-06-15T12:14:44.271Z,7.53
2018-06-15T12:17:12.676Z,6.17
2018-06-15T12:19:40.958Z,7.20
2018-06-15T12:22:09.245Z,8.27
2018-06-15T12:24:37.885Z,6.23
2018-06-15T12:27:06.168Z,8.43
2018-06-15T12:29:34.493Z,9.50
2018-06-15T12:32:02.818Z,7.20
2018-06-15T12:34:31.108Z,7.90
2018-06-15T12:36:59.177Z,9.10
2018-06-15T12:39:27.768Z,8.13
2018-06-15T12:41:55.813Z,8.20
2018-06-15T12:44:24.235Z,8.57
2018-06-15T12:46:52.504Z,8.13
2018-06-15T12:49:20.920Z,8.17
2018-06-15T12:51:49.224Z,6.87
2018-06-15T12:54:17.538Z,6.47
2018-06-15T12:56:45.893Z,7.60
2018-06-15T12:59:14.205Z,8.93
2018-06-15T13:01:42.497Z,8.30
2018-06-15T13:04:10.810Z,8.87
2018-06-15T13:06:39.152Z,7.23
2018-06-15T13:09:08.572Z,8.93
2018-06-15T13:11:36.876Z,7.43
2018-06-15T13:14:05.359Z,8.27
2018-06-15T13:16:33.893Z,8.43
2018-06-15T13:19:02.229Z,7.70
2018-06-15T13:21:30.603Z,7.53
2018-06-15T13:23:59.012Z,7.90
2018-06-15T13:26:27.365Z,9.20
2018-06-15T13:28:55.954Z,8.40
2018-06-15T13:31:24.337Z,7.53
2018-06-15T13:33:52.627Z,8.23
2018-06-15T13:36:20.941Z,7.40
2018-06-15T13:38:49.244Z,7.13
2018-06-15T13:41:17.570Z,7.57
2018-06-15T13:43:45.846Z,6.60
2018-06-15T13:46:14.240Z,6.73
2018-06-15T13:48:42.551Z,6.63
2018-06-15T13:51:10.843Z,7.27
2018-06-15T13:53:39.143Z,8.70
2018-06-15T13:56:07.508Z,7.30
2018-06-15T13:58:35.848Z,6.70
2018-06-15T14:01:04.164Z,6.40
2018-06-15T14:03:32.248Z,6.83
2018-06-15T14:06:00.545Z,8.40
2018-06-15T14:08:28.885Z,7.03
2018-06-15T14:10:57.168Z,6.97
2018-06-15T14:13:25.468Z,6.40
2018-06-15T14:15:53.817Z,7.87
2018-06-15T14:18:22.202Z,9.27
2018-06-15T14:20:50.531Z,8.07
2018-06-15T14:23:18.817Z,10.07
2018-06-15T14:25:47.153Z,9.03
2018-06-15T14:28:15.443Z,7.30
2018-06-15T14:30:44.981Z,7.73
2018-06-15T14:33:13.307Z,8.33
2018-06-15T14:35:41.654Z,8.40
2018-06-15T14:38:10.016Z,7.90
2018-06-15T14:40:38.397Z,9.07
2018-06-15T14:43:06.652Z,8.83
2018-06-15T14:45:34.955Z,9.13
2018-06-15T14:48:03.301Z,7.13
2018-06-15T14:50:31.585Z,8.07
2018-06-15T14:52:59.996Z,7.10
2018-06-15T14:55:28.349Z,7.17
2018-06-15T14:57:56.688Z,6.63
2018-06-15T15:00:25.042Z,7.63
2018-06-15T15:02:53.424Z,7.93
2018-06-15T15:05:21.751Z,6.40
2018-06-15T15:07:50.107Z,7.47
2018-06-15T15:10:18.408Z,6.77
2018-06-15T15:12:46.728Z,7.43
2018-06-15T15:15:15.139Z,8.37
2018-06-15T15:17:43.566Z,9.00
2018-06-15T15:20:11.909Z,8.03
2018-06-15T15:22:40.260Z,8.47
2018-06-15T15:25:10.501Z,8.80
2018-06-15T15:27:38.805Z,7.50
2018-06-15T15:30:07.196Z,8.40
2018-06-15T15:32:35.554Z,7.67
2018-06-15T15:35:03.935Z,7.83
2018-06-15T15:37:35.486Z,6.90
2018-06-15T15:40:03.795Z,7.47
2018-06-15T15:42:32.108Z,7.30
2018-06-15T15:45:00.460Z,6.77
2018-06-15T15:47:28.786Z,7.30
2018-06-15T15:49:57.101Z,7.33
2018-06-15T15:52:25.610Z,6.30
2018-06-15T15:54:53.910Z,7.00
2018-06-15T15:57:22.245Z,7.00
2018-06-15T15:59:50.633Z,6.93
2018-06-15T16:02:18.964Z,7.93
2018-06-15T16:04:47.258Z,8.10
2018-06-15T16:07:15.566Z,7.57
2018-06-15T16:09:43.881Z,7.13
2018-06-15T16:12:12.187Z,6.70
2018-06-15T16:14:40.546Z,6.63
2018-06-15T16:17:08.850Z,6.20
2018-06-15T16:19:37.206Z,6.87
2018-06-15T16:22:05.655Z,6.47
2018-06-15T16:24:35.055Z,6.20
2018-06-15T16:27:03.463Z,6.47
2018-06-15T16:29:31.817Z,6.30
2018-06-15T16:32:05.315Z,5.70
2018-06-15T16:34:33.609Z,5.90
2018-06-15T16:37:01.975Z,5.43
2018-06-15T16:39:30.270Z,6.07
2018-06-15T16:41:58.594Z,6.13
2018-06-15T16:44:26.901Z,6.43
2018-06-15T16:46:55.232Z,6.07
2018-06-15T16:49:23.535Z,5.97
2018-06-15T16:51:51.827Z,5.50
2018-06-15T16:54:20.182Z,5.87
2018-06-15T16:56:48.537Z,6.20
2018-06-15T16:59:16.810Z,6.30
2018-06-15T17:01:45.112Z,5.50
2018-06-15T17:04:13.482Z,5.93
2018-06-15T17:06:41.793Z,5.43
2018-06-15T17:09:11.071Z,6.03
2018-06-15T17:11:39.369Z,5.53
2018-06-15T17:14:07.723Z,5.77
2018-06-15T17:16:36.085Z,5.30
2018-06-15T17:19:04.550Z,6.07
2018-06-15T17:21:32.599Z,6.13
2018-06-15T17:24:00.917Z,5.93
2018-06-15T17:26:29.245Z,6.00
2018-06-15T17:28:57.586Z,6.23
2018-06-15T17:31:25.895Z,5.63
2018-06-15T17:33:54.250Z,6.13
2018-06-15T17:36:22.532Z,5.40
2018-06-15T17:38:50.799Z,5.83
2018-06-15T17:41:19.084Z,5.30
2018-06-15T17:43:47.402Z,5.60
2018-06-15T17:46:15.703Z,5.47
2018-06-15T17:48:44.094Z,5.90
2018-06-15T17:51:12.385Z,5.87
2018-06-15T17:53:40.692Z,5.73
2018-06-15T17:56:08.980Z,6.00
2018-06-15T17:58:37.284Z,5.20
2018-06-15T18:01:05.625Z,5.63
2018-06-15T18:03:34.022Z,4.80
2018-06-15T18:06:02.353Z,5.60
2018-06-15T18:08:30.676Z,5.03
2018-06-15T18:10:58.994Z,5.37
2018-06-15T18:13:27.384Z,4.90
2018-06-15T18:15:55.690Z,5.60
2018-06-15T18:18:23.964Z,5.40
2018-06-15T18:20:52.278Z,5.13
2018-06-15T18:23:20.645Z,5.23
2018-06-15T18:25:48.981Z,5.83
2018-06-15T18:28:17.257Z,4.90
2018-06-15T18:30:45.534Z,5.47
2018-06-15T18:33:13.840Z,5.40
2018-06-15T18:35:42.136Z,6.13
2018-06-15T18:38:10.480Z,5.33
2018-06-15T18:40:38.758Z,5.87
2018-06-15T18:43:07.098Z,5.17
2018-06-15T18:45:35.497Z,5.60
2018-06-15T18:48:03.819Z,5.67
2018-06-15T18:50:32.098Z,5.23
2018-06-15T18:53:00.420Z,5.43
2018-06-15T18:55:28.692Z,6.00
2018-06-15T18:57:57.091Z,8.10
2018-06-15T19:00:25.377Z,10.50
2018-06-15T19:02:53.723Z,7.07
2018-06-15T19:05:22.120Z,7.80
2018-06-15T19:07:50.420Z,7.00
2018-06-15T19:10:18.721Z,6.90
2018-06-15T19:12:47.296Z,7.70
2018-06-15T19:15:15.363Z,8.33
2018-06-15T19:17:43.657Z,9.20
2018-06-15T19:20:11.970Z,9.33
2018-06-15T19:22:40.315Z,8.67
2018-06-15T19:25:08.683Z,10.47
2018-06-15T19:27:37.012Z,10.23
2018-06-15T19:30:05.408Z,8.57
2018-06-15T19:32:33.853Z,9.33
2018-06-15T19:35:02.175Z,8.77
2018-06-15T19:37:30.487Z,7.93
2018-06-15T19:39:58.872Z,7.73
2018-06-15T19:42:27.245Z,7.63
2018-06-15T19:44:55.600Z,10.60
2018-06-15T19:47:23.890Z,12.17
2018-06-15T19:49:52.203Z,11.23
2018-06-15T19:52:20.549Z,12.47
2018-06-15T19:54:48.863Z,13.80
2018-06-15T19:57:17.181Z,13.70
2018-06-15T19:59:45.460Z,14.80
2018-06-15T20:02:13.817Z,15.60
2018-06-15T20:04:42.209Z,15.63
2018-06-15T20:07:10.761Z,16.27
2018-06-15T20:09:39.059Z,15.97
2018-06-15T20:12:07.406Z,16.07
2018-06-15T20:14:35.717Z,17.33
2018-06-15T20:18:33.485Z,16.97
2018-06-15T20:21:01.507Z,16.67
2018-06-15T20:23:29.867Z,17.33
2018-06-15T20:25:58.188Z,16.07
2018-06-15T20:28:26.488Z,17.80
2018-06-15T20:30:54.817Z,16.37
2018-06-15T20:33:23.096Z,16.57
2018-06-15T20:35:51.392Z,16.40
2018-06-15T20:38:19.737Z,15.83
2018-06-15T20:40:48.077Z,16.70
2018-06-15T20:43:16.393Z,16.77
2018-06-15T20:45:44.800Z,16.80
2018-06-15T20:48:13.131Z,16.40
2018-06-15T20:50:41.413Z,17.23
2018-06-15T20:53:09.749Z,17.10
2018-06-15T20:55:38.033Z,17.80
2018-06-15T20:58:06.331Z,17.30
2018-06-15T21:00:34.623Z,16.97
2018-06-15T21:03:02.929Z,18.27
2018-06-15T21:05:31.060Z,18.33
2018-06-15T21:07:59.369Z,18.40
2018-06-15T21:10:27.719Z,18.13
2018-06-15T21:12:56.022Z,17.63
2018-06-15T21:15:24.349Z,18.17
2018-06-15T21:17:52.628Z,18.30
2018-06-15T21:20:20.674Z,17.57
2018-06-15T21:22:48.984Z,17.50
2018-06-15T21:25:17.303Z,18.10
2018-06-15T21:27:45.673Z,17.90
2018-06-15T21:30:13.999Z,17.70
2018-06-15T21:32:42.351Z,19.33
2018-06-15T21:35:10.684Z,17.57
2018-06-15T21:37:39.021Z,19.10
2018-06-15T21:40:07.330Z,18.37
2018-06-15T21:42:35.701Z,18.23
2018-06-15T21:45:03.997Z,17.60
2018-06-15T21:47:32.347Z,19.10
2018-06-15T21:50:00.675Z,19.70
2018-06-15T21:52:28.994Z,19.73
2018-06-15T21:54:57.292Z,20.67
2018-06-15T21:57:25.682Z,21.07
2018-06-15T21:59:54.021Z,19.40
2018-06-15T22:02:22.430Z,20.43
2018-06-15T22:04:51.195Z,18.20
2018-06-15T22:07:19.249Z,19.97
2018-06-15T22:09:47.673Z,19.73
2018-06-15T22:12:15.952Z,20.90
2018-06-15T22:14:44.257Z,19.13
2018-06-15T22:17:12.582Z,20.07
2018-06-15T22:19:40.957Z,20.80
2018-06-15T22:22:09.243Z,20.50
2018-06-15T22:24:37.496Z,20.93
2018-06-15T22:27:05.896Z,20.10
2018-06-15T22:29:34.184Z,20.07
2018-06-15T22:32:02.551Z,20.03
2018-06-15T22:34:30.828Z,19.90
2018-06-15T22:36:59.171Z,19.07
2018-06-15T22:39:27.507Z,19.57
2018-06-15T22:41:55.847Z,19.07
2018-06-15T22:44:24.145Z,19.10
2018-06-15T22:46:52.461Z,19.40
2018-06-15T22:49:20.786Z,18.97
2018-06-15T22:51:49.173Z,19.43
2018-06-15T22:54:17.488Z,18.60
2018-06-15T22:56:45.784Z,21.20
2018-06-15T22:59:14.087Z,18.93
2018-06-15T23:01:42.435Z,19.47
2018-06-15T23:04:10.770Z,18.93
2018-06-15T23:06:39.209Z,20.37
2018-06-15T23:09:09.201Z,20.33
2018-06-15T23:11:37.496Z,19.60
2018-06-15T23:14:06.180Z,19.67
2018-06-15T23:16:34.662Z,21.90
2018-06-15T23:19:02.988Z,20.60
2018-06-15T23:21:31.369Z,21.17
2018-06-15T23:23:59.657Z,19.07
2018-06-15T23:26:27.951Z,22.20
2018-06-15T23:28:56.283Z,23.53
2018-06-15T23:31:24.673Z,22.53
2018-06-15T23:33:52.976Z,23.27
2018-06-15T23:36:23.382Z,22.50
2018-06-15T23:38:51.407Z,22.17
2018-06-15T23:41:19.729Z,22.73
2018-06-15T23:43:48.003Z,23.13
2018-06-15T23:46:16.331Z,22.83
2018-06-15T23:48:44.660Z,23.30
2018-06-15T23:51:12.996Z,23.00
2018-06-15T23:53:41.282Z,23.07
2018-06-15T23:56:09.574Z,22.57
2018-06-15T23:58:37.937Z,23.60
